Terminal Aerodrome Forecast
Issued by NWS Albany, NY

Home | Current Version | Previous Version | Text Only | Print | Product List | Glossary On
Versions: 1 2 3 4 5 6 7 8 9 10 11 12 13 14 15
901
FTUS41 KALY 181720
TAFALB
TAF
KALB 181720Z 1818/1918 23005KT P6SM SKC
     FM190000 18004KT P6SM SKC
     FM191400 19008KT P6SM SKC=

USA.gov is the U.S. government's official web portal to all federal, state and local government web resources and services.